sensor_id;sensor_type;location;lat;lon;timestamp;pressure;altitude;pressure_sealevel;temperature;humidity
64862;BME280;62652;42.274;-71.436;2023-04-30T00:00:00;100930.0;;;9.611111111111109;100.0
64862;BME280;62652;42.274;-71.436;2023-04-30T00:01:00;100930.0;;;9.611111111111109;100.0
64862;BME280;62652;42.274;-71.436;2023-04-30T00:02:01;100930.0;;;9.5;100.0
64862;BME280;62652;42.274;-71.436;2023-04-30T00:03:01;100930.0;;;9.611111111111109;100.0
64862;BME280;62652;42.274;-71.436;2023-04-30T00:04:00;100930.0;;;9.611111111111109;100.0
64862;BME280;62652;42.274;-71.436;2023-04-30T00:05:01;100930.0;;;9.722222222222221;100.0
64862;BME280;62652;42.274;-71.436;2023-04-30T00:06:01;100930.0;;;9.611111111111109;100.0
64862;BME280;62652;42.274;-71.436;2023-04-30T00:07:01;100940.0;;;9.611111111111109;100.0
64862;BME280;62652;42.274;-71.436;2023-04-30T00:08:00;100940.0;;;9.611111111111109;100.0
64862;BME280;62652;42.274;-71.436;2023-04-30T00:09:01;100940.0;;;9.722222222222221;100.0
64862;BME280;62652;42.274;-71.436;2023-04-30T00:10:01;100940.0;;;9.722222222222221;100.0
64862;BME280;62652;42.274;-71.436;2023-04-30T00:11:00;100940.0;;;9.722222222222221;100.0
64862;BME280;62652;42.274;-71.436;2023-04-30T00:12:00;100950.0;;;9.722222222222221;100.0
64862;BME280;62652;42.274;-71.436;2023-04-30T00:13:01;100950.0;;;9.722222222222221;100.0
64862;BME280;62652;42.274;-71.436;2023-04-30T00:14:01;100950.0;;;9.722222222222221;100.0
64862;BME280;62652;42.274;-71.436;2023-04-30T00:15:00;100950.0;;;9.611111111111109;100.0
64862;BME280;62652;42.274;-71.436;2023-04-30T00:16:00;100950.0;;;9.611111111111109;100.0
64862;BME280;62652;42.274;-71.436;2023-04-30T00:17:00;100940.0;;;9.611111111111109;100.0
64862;BME280;62652;42.274;-71.436;2023-04-30T00:18:01;100940.0;;;9.611111111111109;100.0
64862;BME280;62652;42.274;-71.436;2023-04-30T00:19:00;100940.0;;;9.611111111111109;100.0
64862;BME280;62652;42.274;-71.436;2023-04-30T00:20:00;100940.0;;;9.611111111111109;100.0
64862;BME280;62652;42.274;-71.436;2023-04-30T00:21:01;100940.0;;;9.722222222222221;100.0
64862;BME280;62652;42.274;-71.436;2023-04-30T00:22:01;100950.0;;;9.722222222222221;100.0
64862;BME280;62652;42.274;-71.436;2023-04-30T00:23:00;100960.0;;;9.722222222222221;100.0
64862;BME280;62652;42.274;-71.436;2023-04-30T00:24:01;100950.0;;;9.722222222222221;100.0
64862;BME280;62652;42.274;-71.436;2023-04-30T00:25:00;100960.0;;;9.722222222222221;100.0
64862;BME280;62652;42.274;-71.436;2023-04-30T00:26:00;100960.0;;;9.611111111111109;100.0
64862;BME280;62652;42.274;-71.436;2023-04-30T00:27:01;100970.0;;;9.722222222222221;100.0
64862;BME280;62652;42.274;-71.436;2023-04-30T00:28:00;100960.0;;;9.611111111111109;100.0
64862;BME280;62652;42.274;-71.436;2023-04-30T00:29:00;100960.0;;;9.611111111111109;100.0
64862;BME280;62652;42.274;-71.436;2023-04-30T00:30:01;100960.0;;;9.611111111111109;100.0
64862;BME280;62652;42.274;-71.436;2023-04-30T00:31:00;100960.0;;;9.611111111111109;100.0
64862;BME280;62652;42.274;-71.436;2023-04-30T00:32:01;100960.0;;;9.5;100.0
64862;BME280;62652;42.274;-71.436;2023-04-30T00:33:00;100950.0;;;9.5;100.0
64862;BME280;62652;42.274;-71.436;2023-04-30T00:34:00;100940.0;;;9.5;100.0
64862;BME280;62652;42.274;-71.436;2023-04-30T00:35:00;100940.0;;;9.38888888888889;100.0
64862;BME280;62652;42.274;-71.436;2023-04-30T00:36:00;100940.0;;;9.38888888888889;100.0
64862;BME280;62652;42.274;-71.436;2023-04-30T00:37:00;100940.0;;;9.38888888888889;100.0
64862;BME280;62652;42.274;-71.436;2023-04-30T00:38:01;100940.0;;;9.5;100.0
64862;BME280;62652;42.274;-71.436;2023-04-30T00:39:01;100940.0;;;9.5;100.0
64862;BME280;62652;42.274;-71.436;2023-04-30T00:40:01;100940.0;;;9.5;100.0
64862;BME280;62652;42.274;-71.436;2023-04-30T00:41:01;100940.0;;;9.5;100.0
64862;BME280;62652;42.274;-71.436;2023-04-30T00:42:00;100940.0;;;9.5;100.0
64862;BME280;62652;42.274;-71.436;2023-04-30T00:43:00;100940.0;;;9.611111111111109;100.0
64862;BME280;62652;42.274;-71.436;2023-04-30T00:44:00;100930.0;;;9.5;100.0
64862;BME280;62652;42.274;-71.436;2023-04-30T00:45:00;100930.0;;;9.611111111111109;100.0
64862;BME280;62652;42.274;-71.436;2023-04-30T00:46:00;100930.0;;;9.5;100.0
64862;BME280;62652;42.274;-71.436;2023-04-30T00:47:01;100930.0;;;9.5;100.0
64862;BME280;62652;42.274;-71.436;2023-04-30T00:48:01;100930.0;;;9.5;100.0
64862;BME280;62652;42.274;-71.436;2023-04-30T00:49:01;100930.0;;;9.5;100.0
64862;BME280;62652;42.274;-71.436;2023-04-30T00:50:01;100930.0;;;9.5;100.0
64862;BME280;62652;42.274;-71.436;2023-04-30T00:51:01;100930.0;;;9.38888888888889;100.0
64862;BME280;62652;42.274;-71.436;2023-04-30T00:52:01;100930.0;;;9.38888888888889;100.0
64862;BME280;62652;42.274;-71.436;2023-04-30T00:53:01;100940.0;;;9.277777777777779;100.0
64862;BME280;62652;42.274;-71.436;2023-04-30T00:54:01;100930.0;;;9.38888888888889;100.0
64862;BME280;62652;42.274;-71.436;2023-04-30T00:55:01;100940.0;;;9.277777777777779;100.0
64862;BME280;62652;42.274;-71.436;2023-04-30T00:56:01;100930.0;;;9.277777777777779;100.0
64862;BME280;62652;42.274;-71.436;2023-04-30T00:57:01;100930.0;;;9.277777777777779;100.0
64862;BME280;62652;42.274;-71.436;2023-04-30T00:58:00;100920.0;;;9.277777777777779;100.0
64862;BME280;62652;42.274;-71.436;2023-04-30T00:59:01;100920.0;;;9.277777777777779;100.0
64862;BME280;62652;42.274;-71.436;2023-04-30T01:00:01;100920.0;;;9.277777777777779;100.0
64862;BME280;62652;42.274;-71.436;2023-04-30T01:01:01;100910.0;;;9.222222222222221;100.0
64862;BME280;62652;42.274;-71.436;2023-04-30T01:02:01;100920.0;;;9.222222222222221;100.0
64862;BME280;62652;42.274;-71.436;2023-04-30T01:03:01;100910.0;;;9.222222222222221;100.0
64862;BME280;62652;42.274;-71.436;2023-04-30T01:04:00;100920.0;;;9.277777777777779;100.0
64862;BME280;62652;42.274;-71.436;2023-04-30T01:05:01;100920.0;;;9.277777777777779;100.0
64862;BME280;62652;42.274;-71.436;2023-04-30T01:06:00;100910.0;;;9.277777777777779;100.0
64862;BME280;62652;42.274;-71.436;2023-04-30T01:07:01;100910.0;;;9.277777777777779;100.0
64862;BME280;62652;42.274;-71.436;2023-04-30T01:08:00;100910.0;;;9.277777777777779;100.0
64862;BME280;62652;42.274;-71.436;2023-04-30T01:09:01;100920.0;;;9.38888888888889;100.0
64862;BME280;62652;42.274;-71.436;2023-04-30T01:10:01;100920.0;;;9.277777777777779;100.0
64862;BME280;62652;42.274;-71.436;2023-04-30T01:11:06;100920.0;;;9.277777777777779;100.0
64862;BME280;62652;42.274;-71.436;2023-04-30T01:12:12;100920.0;;;9.38888888888889;100.0
64862;BME280;62652;42.274;-71.436;2023-04-30T01:13:05;100920.0;;;9.277777777777779;100.0
64862;BME280;62652;42.274;-71.436;2023-04-30T01:14:07;100910.0;;;9.222222222222221;100.0
64862;BME280;62652;42.274;-71.436;2023-04-30T01:15:08;100910.0;;;9.277777777777779;100.0
64862;BME280;62652;42.274;-71.436;2023-04-30T01:16:09;100910.0;;;9.222222222222221;100.0
64862;BME280;62652;42.274;-71.436;2023-04-30T01:17:05;100910.0;;;9.222222222222221;100.0
64862;BME280;62652;42.274;-71.436;2023-04-30T01:18:06;100920.0;;;9.277777777777779;100.0
64862;BME280;62652;42.274;-71.436;2023-04-30T01:19:04;100920.0;;;9.277777777777779;100.0
64862;BME280;62652;42.274;-71.436;2023-04-30T01:20:01;100930.0;;;9.277777777777779;100.0
64862;BME280;62652;42.274;-71.436;2023-04-30T01:21:04;100930.0;;;9.38888888888889;100.0
64862;BME280;62652;42.274;-71.436;2023-04-30T01:22:03;100930.0;;;9.38888888888889;100.0
64862;BME280;62652;42.274;-71.436;2023-04-30T01:23:10;100930.0;;;9.38888888888889;100.0
64862;BME280;62652;42.274;-71.436;2023-04-30T01:24:17;100930.0;;;9.38888888888889;100.0
64862;BME280;62652;42.274;-71.436;2023-04-30T01:25:16;100930.0;;;9.277777777777779;100.0
64862;BME280;62652;42.274;-71.436;2023-04-30T01:26:10;100940.0;;;9.38888888888889;100.0
64862;BME280;62652;42.274;-71.436;2023-04-30T01:27:14;100940.0;;;9.277777777777779;100.0
64862;BME280;62652;42.274;-71.436;2023-04-30T01:28:01;100940.0;;;9.38888888888889;100.0
64862;BME280;62652;42.274;-71.436;2023-04-30T01:29:01;100940.0;;;9.5;100.0
64862;BME280;62652;42.274;-71.436;2023-04-30T01:30:03;100950.0;;;9.5;100.0
64862;BME280;62652;42.274;-71.436;2023-04-30T01:31:01;100950.0;;;9.5;100.0
64862;BME280;62652;42.274;-71.436;2023-04-30T01:32:01;100940.0;;;9.5;100.0
64862;BME280;62652;42.274;-71.436;2023-04-30T01:33:02;100940.0;;;9.611111111111109;100.0
64862;BME280;62652;42.274;-71.436;2023-04-30T01:34:00;100940.0;;;9.5;100.0
64862;BME280;62652;42.274;-71.436;2023-04-30T01:35:00;100940.0;;;9.611111111111109;100.0
64862;BME280;62652;42.274;-71.436;2023-04-30T01:36:09;100940.0;;;9.5;100.0
64862;BME280;62652;42.274;-71.436;2023-04-30T01:37:10;100940.0;;;9.611111111111109;100.0
64862;BME280;62652;42.274;-71.436;2023-04-30T01:38:06;100930.0;;;9.5;100.0
64862;BME280;62652;42.274;-71.436;2023-04-30T01:39:08;100930.0;;;9.611111111111109;100.0
64862;BME280;62652;42.274;-71.436;2023-04-30T01:40:08;100930.0;;;9.5;100.0
64862;BME280;62652;42.274;-71.436;2023-04-30T01:41:09;100930.0;;;9.5;100.0
64862;BME280;62652;42.274;-71.436;2023-04-30T01:42:05;100930.0;;;9.611111111111109;100.0
64862;BME280;62652;42.274;-71.436;2023-04-30T01:43:07;100930.0;;;9.722222222222221;100.0
64862;BME280;62652;42.274;-71.436;2023-04-30T01:44:13;100930.0;;;9.777777777777779;100.0
64862;BME280;62652;42.274;-71.436;2023-04-30T01:45:13;100930.0;;;9.777777777777779;100.0
64862;BME280;62652;42.274;-71.436;2023-04-30T01:46:07;100920.0;;;9.722222222222221;100.0
64862;BME280;62652;42.274;-71.436;2023-04-30T01:47:05;100920.0;;;9.611111111111109;100.0
64862;BME280;62652;42.274;-71.436;2023-04-30T01:48:09;100920.0;;;9.722222222222221;100.0
64862;BME280;62652;42.274;-71.436;2023-04-30T01:49:08;100920.0;;;9.777777777777779;100.0
64862;BME280;62652;42.274;-71.436;2023-04-30T01:50:08;100920.0;;;9.777777777777779;100.0
64862;BME280;62652;42.274;-71.436;2023-04-30T01:51:04;100920.0;;;9.722222222222221;100.0
64862;BME280;62652;42.274;-71.436;2023-04-30T01:52:17;100910.0;;;9.722222222222221;100.0
64862;BME280;62652;42.274;-71.436;2023-04-30T01:53:04;100910.0;;;9.722222222222221;100.0
64862;BME280;62652;42.274;-71.436;2023-04-30T01:54:04;100900.0;;;9.611111111111109;100.0
64862;BME280;62652;42.274;-71.436;2023-04-30T01:55:07;100900.0;;;9.611111111111109;100.0
64862;BME280;62652;42.274;-71.436;2023-04-30T01:56:04;100890.0;;;9.722222222222221;100.0
64862;BME280;62652;42.274;-71.436;2023-04-30T01:57:04;100890.0;;;9.722222222222221;100.0
64862;BME280;62652;42.274;-71.436;2023-04-30T01:58:05;100890.0;;;9.611111111111109;100.0
64862;BME280;62652;42.274;-71.436;2023-04-30T01:59:01;100890.0;;;9.611111111111109;100.0
64862;BME280;62652;42.274;-71.436;2023-04-30T02:00:02;100890.0;;;9.611111111111109;100.0
64862;BME280;62652;42.274;-71.436;2023-04-30T02:01:00;100890.0;;;9.611111111111109;100.0
64862;BME280;62652;42.274;-71.436;2023-04-30T02:02:01;100890.0;;;9.611111111111109;100.0
64862;BME280;62652;42.274;-71.436;2023-04-30T02:03:01;100880.0;;;9.5;100.0
64862;BME280;62652;42.274;-71.436;2023-04-30T02:04:00;100880.0;;;9.5;100.0
64862;BME280;62652;42.274;-71.436;2023-04-30T02:05:00;100880.0;;;9.5;100.0
64862;BME280;62652;42.274;-71.436;2023-04-30T02:06:01;100880.0;;;9.38888888888889;100.0
64862;BME280;62652;42.274;-71.436;2023-04-30T02:07:01;100880.0;;;9.38888888888889;100.0
64862;BME280;62652;42.274;-71.436;2023-04-30T02:08:01;100880.0;;;9.5;100.0
64862;BME280;62652;42.274;-71.436;2023-04-30T02:09:00;100880.0;;;9.38888888888889;100.0
64862;BME280;62652;42.274;-71.436;2023-04-30T02:10:00;100880.0;;;9.5;100.0
64862;BME280;62652;42.274;-71.436;2023-04-30T02:11:00;100870.0;;;9.5;100.0
64862;BME280;62652;42.274;-71.436;2023-04-30T02:12:00;100860.0;;;9.5;100.0
64862;BME280;62652;42.274;-71.436;2023-04-30T02:13:00;100860.0;;;9.5;100.0
64862;BME280;62652;42.274;-71.436;2023-04-30T02:14:01;100860.0;;;9.5;100.0
64862;BME280;62652;42.274;-71.436;2023-04-30T02:15:01;100860.0;;;9.5;100.0
64862;BME280;62652;42.274;-71.436;2023-04-30T02:16:01;100860.0;;;9.5;100.0
64862;BME280;62652;42.274;-71.436;2023-04-30T02:17:00;100850.0;;;9.5;100.0
64862;BME280;62652;42.274;-71.436;2023-04-30T02:18:01;100850.0;;;9.38888888888889;100.0
64862;BME280;62652;42.274;-71.436;2023-04-30T02:19:01;100850.0;;;9.5;100.0
64862;BME280;62652;42.274;-71.436;2023-04-30T02:20:00;100850.0;;;9.5;100.0
64862;BME280;62652;42.274;-71.436;2023-04-30T02:21:00;100840.0;;;9.38888888888889;100.0
64862;BME280;62652;42.274;-71.436;2023-04-30T02:22:00;100840.0;;;9.38888888888889;100.0
64862;BME280;62652;42.274;-71.436;2023-04-30T02:23:00;100840.0;;;9.38888888888889;100.0
64862;BME280;62652;42.274;-71.436;2023-04-30T02:24:00;100830.0;;;9.38888888888889;100.0
64862;BME280;62652;42.274;-71.436;2023-04-30T02:25:01;100830.0;;;9.38888888888889;100.0
64862;BME280;62652;42.274;-71.436;2023-04-30T02:26:01;100830.0;;;9.38888888888889;100.0
64862;BME280;62652;42.274;-71.436;2023-04-30T02:27:01;100830.0;;;9.5;100.0
64862;BME280;62652;42.274;-71.436;2023-04-30T02:28:00;100830.0;;;9.5;100.0
64862;BME280;62652;42.274;-71.436;2023-04-30T02:29:00;100830.0;;;9.38888888888889;100.0
64862;BME280;62652;42.274;-71.436;2023-04-30T02:30:01;100830.0;;;9.38888888888889;100.0
64862;BME280;62652;42.274;-71.436;2023-04-30T02:31:00;100820.0;;;9.38888888888889;100.0
64862;BME280;62652;42.274;-71.436;2023-04-30T02:32:00;100820.0;;;9.38888888888889;100.0
64862;BME280;62652;42.274;-71.436;2023-04-30T02:33:01;100810.0;;;9.38888888888889;100.0
64862;BME280;62652;42.274;-71.436;2023-04-30T02:34:00;100800.0;;;9.38888888888889;100.0
64862;BME280;62652;42.274;-71.436;2023-04-30T02:35:01;100810.0;;;9.38888888888889;100.0
64862;BME280;62652;42.274;-71.436;2023-04-30T02:36:00;100810.0;;;9.38888888888889;100.0
64862;BME280;62652;42.274;-71.436;2023-04-30T02:37:00;100810.0;;;9.38888888888889;100.0
64862;BME280;62652;42.274;-71.436;2023-04-30T02:38:00;100800.0;;;9.5;100.0
64862;BME280;62652;42.274;-71.436;2023-04-30T02:39:01;100800.0;;;9.5;100.0
64862;BME280;62652;42.274;-71.436;2023-04-30T02:40:00;100800.0;;;9.5;100.0
64862;BME280;62652;42.274;-71.436;2023-04-30T02:41:00;100790.0;;;9.5;100.0
64862;BME280;62652;42.274;-71.436;2023-04-30T02:42:01;100790.0;;;9.611111111111109;100.0
64862;BME280;62652;42.274;-71.436;2023-04-30T02:43:00;100790.0;;;9.5;100.0
64862;BME280;62652;42.274;-71.436;2023-04-30T02:44:00;100790.0;;;9.5;100.0
64862;BME280;62652;42.274;-71.436;2023-04-30T02:45:00;100790.0;;;9.5;100.0
64862;BME280;62652;42.274;-71.436;2023-04-30T02:46:00;100790.0;;;9.5;100.0
64862;BME280;62652;42.274;-71.436;2023-04-30T02:47:01;100800.0;;;9.5;100.0
64862;BME280;62652;42.274;-71.436;2023-04-30T02:48:00;100800.0;;;9.5;100.0
64862;BME280;62652;42.274;-71.436;2023-04-30T02:49:01;100800.0;;;9.611111111111109;100.0
64862;BME280;62652;42.274;-71.436;2023-04-30T02:50:01;100800.0;;;9.611111111111109;100.0
64862;BME280;62652;42.274;-71.436;2023-04-30T02:51:01;100800.0;;;9.611111111111109;100.0
64862;BME280;62652;42.274;-71.436;2023-04-30T02:52:01;100800.0;;;9.611111111111109;100.0
64862;BME280;62652;42.274;-71.436;2023-04-30T02:53:01;100800.0;;;9.722222222222221;100.0
64862;BME280;62652;42.274;-71.436;2023-04-30T02:54:00;100800.0;;;9.611111111111109;100.0
64862;BME280;62652;42.274;-71.436;2023-04-30T02:55:00;100800.0;;;9.611111111111109;100.0
64862;BME280;62652;42.274;-71.436;2023-04-30T02:56:00;100800.0;;;9.611111111111109;100.0
64862;BME280;62652;42.274;-71.436;2023-04-30T02:57:01;100800.0;;;9.611111111111109;100.0
64862;BME280;62652;42.274;-71.436;2023-04-30T02:58:00;100800.0;;;9.611111111111109;100.0
64862;BME280;62652;42.274;-71.436;2023-04-30T02:59:00;100800.0;;;9.611111111111109;100.0
64862;BME280;62652;42.274;-71.436;2023-04-30T03:00:00;100790.0;;;9.611111111111109;100.0
64862;BME280;62652;42.274;-71.436;2023-04-30T03:01:00;100790.0;;;9.611111111111109;100.0
64862;BME280;62652;42.274;-71.436;2023-04-30T03:02:00;100780.0;;;9.5;100.0
64862;BME280;62652;42.274;-71.436;2023-04-30T03:03:00;100780.0;;;9.611111111111109;100.0
64862;BME280;62652;42.274;-71.436;2023-04-30T03:04:01;100780.0;;;9.611111111111109;100.0
64862;BME280;62652;42.274;-71.436;2023-04-30T03:05:01;100770.0;;;9.611111111111109;100.0
64862;BME280;62652;42.274;-71.436;2023-04-30T03:06:01;100770.0;;;9.611111111111109;100.0
64862;BME280;62652;42.274;-71.436;2023-04-30T03:07:00;100770.0;;;9.5;100.0
64862;BME280;62652;42.274;-71.436;2023-04-30T03:08:00;100770.0;;;9.5;100.0
64862;BME280;62652;42.274;-71.436;2023-04-30T03:09:00;100760.0;;;9.5;100.0
64862;BME280;62652;42.274;-71.436;2023-04-30T03:10:01;100760.0;;;9.611111111111109;100.0
64862;BME280;62652;42.274;-71.436;2023-04-30T03:11:00;100770.0;;;9.611111111111109;100.0
64862;BME280;62652;42.274;-71.436;2023-04-30T03:12:01;100770.0;;;9.611111111111109;100.0
64862;BME280;62652;42.274;-71.436;2023-04-30T03:13:00;100760.0;;;9.611111111111109;100.0
64862;BME280;62652;42.274;-71.436;2023-04-30T03:14:00;100760.0;;;9.611111111111109;100.0
64862;BME280;62652;42.274;-71.436;2023-04-30T03:15:01;100760.0;;;9.722222222222221;100.0
64862;BME280;62652;42.274;-71.436;2023-04-30T03:16:02;100750.0;;;9.611111111111109;100.0
64862;BME280;62652;42.274;-71.436;2023-04-30T03:17:00;100750.0;;;9.5;100.0
64862;BME280;62652;42.274;-71.436;2023-04-30T03:18:00;100750.0;;;9.611111111111109;100.0
64862;BME280;62652;42.274;-71.436;2023-04-30T03:19:01;100750.0;;;9.611111111111109;100.0
64862;BME280;62652;42.274;-71.436;2023-04-30T03:20:00;100750.0;;;9.5;100.0
64862;BME280;62652;42.274;-71.436;2023-04-30T03:21:00;100740.0;;;9.5;100.0
64862;BME280;62652;42.274;-71.436;2023-04-30T03:22:00;100730.0;;;9.5;100.0
64862;BME280;62652;42.274;-71.436;2023-04-30T03:23:01;100730.0;;;9.611111111111109;100.0
64862;BME280;62652;42.274;-71.436;2023-04-30T03:24:01;100730.0;;;9.611111111111109;100.0
64862;BME280;62652;42.274;-71.436;2023-04-30T03:25:00;100730.0;;;9.611111111111109;100.0
64862;BME280;62652;42.274;-71.436;2023-04-30T03:26:01;100730.0;;;9.5;100.0
64862;BME280;62652;42.274;-71.436;2023-04-30T03:27:01;100720.0;;;9.611111111111109;100.0
64862;BME280;62652;42.274;-71.436;2023-04-30T03:28:00;100720.0;;;9.611111111111109;100.0
64862;BME280;62652;42.274;-71.436;2023-04-30T03:29:00;100720.0;;;9.611111111111109;100.0
64862;BME280;62652;42.274;-71.436;2023-04-30T03:30:00;100710.0;;;9.722222222222221;100.0
64862;BME280;62652;42.274;-71.436;2023-04-30T03:31:00;100700.0;;;9.722222222222221;100.0
64862;BME280;62652;42.274;-71.436;2023-04-30T03:32:00;100700.0;;;9.722222222222221;100.0
64862;BME280;62652;42.274;-71.436;2023-04-30T03:33:00;100710.0;;;9.611111111111109;100.0
64862;BME280;62652;42.274;-71.436;2023-04-30T03:34:01;100710.0;;;9.611111111111109;100.0
64862;BME280;62652;42.274;-71.436;2023-04-30T03:35:00;100700.0;;;9.611111111111109;100.0
64862;BME280;62652;42.274;-71.436;2023-04-30T03:36:01;100710.0;;;9.611111111111109;100.0
64862;BME280;62652;42.274;-71.436;2023-04-30T03:37:01;100710.0;;;9.611111111111109;100.0
64862;BME280;62652;42.274;-71.436;2023-04-30T03:38:00;100710.0;;;9.611111111111109;100.0
64862;BME280;62652;42.274;-71.436;2023-04-30T03:39:01;100700.0;;;9.611111111111109;100.0
64862;BME280;62652;42.274;-71.436;2023-04-30T03:40:00;100700.0;;;9.611111111111109;100.0
64862;BME280;62652;42.274;-71.436;2023-04-30T03:41:01;100690.0;;;9.722222222222221;100.0
64862;BME280;62652;42.274;-71.436;2023-04-30T03:42:00;100690.0;;;9.611111111111109;100.0
64862;BME280;62652;42.274;-71.436;2023-04-30T03:43:00;100690.0;;;9.611111111111109;100.0
64862;BME280;62652;42.274;-71.436;2023-04-30T03:44:00;100680.0;;;9.611111111111109;100.0
64862;BME280;62652;42.274;-71.436;2023-04-30T03:45:00;100680.0;;;9.611111111111109;100.0
64862;BME280;62652;42.274;-71.436;2023-04-30T03:46:00;100680.0;;;9.722222222222221;100.0
64862;BME280;62652;42.274;-71.436;2023-04-30T03:47:01;100680.0;;;9.722222222222221;100.0
64862;BME280;62652;42.274;-71.436;2023-04-30T03:48:00;100670.0;;;9.722222222222221;100.0
64862;BME280;62652;42.274;-71.436;2023-04-30T03:49:01;100670.0;;;9.722222222222221;100.0
64862;BME280;62652;42.274;-71.436;2023-04-30T03:50:01;100670.0;;;9.722222222222221;100.0
64862;BME280;62652;42.274;-71.436;2023-04-30T03:51:00;100670.0;;;9.722222222222221;100.0
64862;BME280;62652;42.274;-71.436;2023-04-30T03:52:00;100670.0;;;9.722222222222221;100.0
64862;BME280;62652;42.274;-71.436;2023-04-30T03:53:00;100670.0;;;9.722222222222221;100.0
64862;BME280;62652;42.274;-71.436;2023-04-30T03:54:00;100670.0;;;9.777777777777779;100.0
64862;BME280;62652;42.274;-71.436;2023-04-30T03:55:00;100670.0;;;9.777777777777779;100.0
64862;BME280;62652;42.274;-71.436;2023-04-30T03:56:01;100660.0;;;9.888888888888888;100.0
64862;BME280;62652;42.274;-71.436;2023-04-30T03:57:01;100660.0;;;9.777777777777779;100.0
64862;BME280;62652;42.274;-71.436;2023-04-30T03:58:00;100660.0;;;9.777777777777779;100.0
64862;BME280;62652;42.274;-71.436;2023-04-30T03:59:01;100650.0;;;9.777777777777779;100.0
64862;BME280;62652;42.274;-71.436;2023-04-30T04:00:01;100650.0;;;9.777777777777779;100.0
64862;BME280;62652;42.274;-71.436;2023-04-30T04:01:00;100650.0;;;9.888888888888888;100.0
64862;BME280;62652;42.274;-71.436;2023-04-30T04:02:01;100660.0;;;9.888888888888888;100.0
64862;BME280;62652;42.274;-71.436;2023-04-30T04:03:01;100650.0;;;9.777777777777779;100.0
64862;BME280;62652;42.274;-71.436;2023-04-30T04:04:00;100650.0;;;9.888888888888888;100.0
64862;BME280;62652;42.274;-71.436;2023-04-30T04:05:01;100650.0;;;9.888888888888888;100.0
64862;BME280;62652;42.274;-71.436;2023-04-30T04:06:00;100640.0;;;9.888888888888888;100.0
64862;BME280;62652;42.274;-71.436;2023-04-30T04:07:00;100640.0;;;9.888888888888888;100.0
64862;BME280;62652;42.274;-71.436;2023-04-30T04:08:01;100640.0;;;9.888888888888888;100.0
64862;BME280;62652;42.274;-71.436;2023-04-30T04:09:00;100640.0;;;9.888888888888888;100.0
64862;BME280;62652;42.274;-71.436;2023-04-30T04:10:00;100640.0;;;9.888888888888888;100.0
64862;BME280;62652;42.274;-71.436;2023-04-30T04:11:00;100640.0;;;9.888888888888888;100.0
64862;BME280;62652;42.274;-71.436;2023-04-30T04:12:01;100640.0;;;9.888888888888888;100.0
64862;BME280;62652;42.274;-71.436;2023-04-30T04:13:00;100640.0;;;9.888888888888888;100.0
64862;BME280;62652;42.274;-71.436;2023-04-30T04:14:01;100640.0;;;9.888888888888888;100.0
64862;BME280;62652;42.274;-71.436;2023-04-30T04:15:00;100640.0;;;10.0;100.0
64862;BME280;62652;42.274;-71.436;2023-04-30T04:16:00;100640.0;;;10.0;100.0
64862;BME280;62652;42.274;-71.436;2023-04-30T04:17:01;100640.0;;;9.888888888888888;100.0
64862;BME280;62652;42.274;-71.436;2023-04-30T04:18:01;100630.0;;;10.0;100.0
64862;BME280;62652;42.274;-71.436;2023-04-30T04:19:00;100630.0;;;10.0;100.0
64862;BME280;62652;42.274;-71.436;2023-04-30T04:20:01;100630.0;;;10.0;100.0
64862;BME280;62652;42.274;-71.436;2023-04-30T04:21:01;100630.0;;;10.0;100.0
64862;BME280;62652;42.274;-71.436;2023-04-30T04:22:00;100620.0;;;9.888888888888888;100.0
64862;BME280;62652;42.274;-71.436;2023-04-30T04:23:00;100620.0;;;9.888888888888888;100.0
64862;BME280;62652;42.274;-71.436;2023-04-30T04:24:00;100620.0;;;9.777777777777779;100.0
64862;BME280;62652;42.274;-71.436;2023-04-30T04:25:01;100620.0;;;9.888888888888888;100.0
64862;BME280;62652;42.274;-71.436;2023-04-30T04:26:00;100610.0;;;9.777777777777779;100.0
64862;BME280;62652;42.274;-71.436;2023-04-30T04:27:00;100600.0;;;9.722222222222221;100.0
64862;BME280;62652;42.274;-71.436;2023-04-30T04:28:00;100610.0;;;9.722222222222221;100.0
64862;BME280;62652;42.274;-71.436;2023-04-30T04:29:00;100610.0;;;9.777777777777779;100.0
64862;BME280;62652;42.274;-71.436;2023-04-30T04:30:02;100610.0;;;9.777777777777779;100.0
64862;BME280;62652;42.274;-71.436;2023-04-30T04:31:00;100610.0;;;9.777777777777779;100.0
64862;BME280;62652;42.274;-71.436;2023-04-30T04:32:01;100610.0;;;9.777777777777779;100.0
64862;BME280;62652;42.274;-71.436;2023-04-30T04:33:00;100600.0;;;9.777777777777779;100.0
64862;BME280;62652;42.274;-71.436;2023-04-30T04:34:02;100600.0;;;9.777777777777779;100.0
64862;BME280;62652;42.274;-71.436;2023-04-30T04:35:00;100600.0;;;9.777777777777779;100.0
64862;BME280;62652;42.274;-71.436;2023-04-30T04:36:00;100600.0;;;9.888888888888888;100.0
64862;BME280;62652;42.274;-71.436;2023-04-30T04:37:00;100610.0;;;9.888888888888888;100.0
64862;BME280;62652;42.274;-71.436;2023-04-30T04:38:01;100610.0;;;9.888888888888888;100.0